Latest Weather Observations for Frederick Reef

IDQ60801

Issued at 11:02 pm EST Wednesday 27 July 2016 (issued every 30 minutes, with the page automatically refreshed every 10 minutes)

About weather observations | Map of weather stations | Latest weather observations for QLD | Other Formats
Station Details ID: 200701 Name: FREDERICK REEF Lat: -20.94 Lon: 154.40 Height: 4.9 m
Data from the previous 72 hours. | See also: Recent months for locations in Queensland
Date/Time
EST
Temp
°C
App
Temp
°C
Dew
Point
°C
Rel
Hum
%
Delta-T
°C
Wind Press
QNH
hPa
Press
MSL
hPa
Rain since
9am
mm
Dir  Spd
km/h
Gust
km/h
Spd
kts
Gust
kts
27/11:00pm 24.1 - - - - SSE 26 30 14 16 1017.9 - -
27/10:30pm 24.1 - - - - SSE 22 28 12 15 1017.8 - -
27/10:00pm 23.8 - - - - SSE 20 24 11 13 1018.0 1018.0 -
27/09:30pm 23.3 - - - - SSE 22 24 12 13 1018.4 - -
27/09:00pm 23.9 - - - - SSW 17 20 9 11 1018.2 1018.3 -
27/08:30pm 23.1 - - - - SW 11 15 6 8 1018.3 - -
27/08:00pm 22.7 - - - - SW 9 15 5 8 1018.2 1018.3 -
27/07:30pm 22.0 - - - - SSW 15 17 8 9 1017.9 - -
27/07:00pm 22.2 - - - - SSW 15 19 8 10 1017.6 1017.7 -
27/06:30pm 21.9 - - - - SSW 17 22 9 12 1017.1 - -
27/06:00pm 21.9 - - - - SSW 20 32 11 17 1016.7 1016.7 -
27/05:30pm 22.9 - - - - SSW 24 32 13 17 1016.2 - -
27/05:00pm 23.1 - - - - SSW 19 24 10 13 1015.9 1015.9 -
27/04:30pm 23.5 - - - - SSW 22 28 12 15 1015.7 - -
27/04:00pm 24.6 - - - - ESE 4 13 2 7 1015.6 1015.5 -
27/03:30pm 24.8 - - - - SSE 9 11 5 6 1015.3 - -
27/03:00pm 24.8 - - - - SSE 7 7 4 4 1015.2 1015.3 -
27/02:30pm 25.0 - - - - SSE 2 7 1 4 1015.2 - -
27/02:00pm 24.8 - - - - SSE 2 7 1 4 1015.2 1015.1 -
27/01:30pm 24.9 - - - - E 9 11 5 6 1015.4 - -
27/01:00pm 24.8 - - - - SE 7 9 4 5 1015.7 1015.7 -
27/12:30pm 25.1 - - - - ENE 7 11 4 6 1015.9 - -
27/12:00pm 24.8 - - - - E 7 9 4 5 1016.1 1016.0 -
27/11:30am 24.7 - - - - E 7 9 4 5 1016.7 - -
27/11:00am 24.5 - - - - ESE 13 13 7 7 1016.8 1016.8 -
27/10:30am 24.7 - - - - E 9 11 5 6 1017.2 - -
27/10:00am 24.8 - - - - ESE 9 11 5 6 1017.6 1017.4 -
27/09:30am 24.6 - - - - E 11 13 6 7 1017.8 - -
27/09:00am 24.9 - - - - E 11 13 6 7 1018.0 1017.8 -
27/08:30am 24.8 - - - - E 9 11 5 6 1017.9 - -
27/08:00am 24.3 - - - - E 13 13 7 7 1017.6 1017.6 -
27/07:30am 24.5 - - - - E 11 13 6 7 1017.4 - -
27/07:00am 24.2 - - - - ENE 13 15 7 8 1017.1 1017.2 -
27/06:30am 24.3 - - - - E 17 19 9 10 1016.7 - -
27/06:00am 24.2 - - - - E 15 20 8 11 1016.5 1016.5 -
27/05:30am 24.3 - - - - E 19 20 10 11 1016.3 - -
27/05:00am 24.3 - - - - SE 20 22 11 12 1016.1 1016.2 -
27/04:30am 24.3 - - - - SE 20 22 11 12 1016.0 - -
27/04:00am 24.2 - - - - E 19 22 10 12 1015.9 1016.0 -
27/03:30am 24.1 - - - - SSE 19 20 10 11 1015.8 - -
27/03:00am 24.2 - - - - SE 19 24 10 13 1015.9 1015.9 -
27/02:30am 24.4 - - - - ESE 20 24 11 13 1016.1 - -
27/02:00am 24.1 - - - - ESE 22 26 12 14 1016.2 1016.2 -
27/01:30am 24.2 - - - - SSE 20 24 11 13 1016.4 - -
27/01:00am 24.3 - - - - SSE 19 22 10 12 1016.5 1016.4 -
27/12:30am 24.0 - - - - SE 20 22 11 12 1016.7 - -
27/12:00am 24.4 - - - - ESE 22 26 12 14 1016.6 1016.7 -
 
Date/Time
EST
Temp
°C
App
Temp
°C
Dew
Point
°C
Rel
Hum
%
Delta-T
°C
Wind Press
QNH
hPa
Press
MSL
hPa
Rain since
9am
mm
Dir  Spd
km/h
Gust
km/h
Spd
kts
Gust
kts
26/11:30pm 24.2 - - - - ESE 24 28 13 15 1016.5 - -
26/11:00pm 24.4 - - - - ESE 26 30 14 16 1016.6 1016.6 -
26/10:30pm 24.4 - - - - ESE 26 30 14 16 1016.7 - -
26/10:00pm 24.4 - - - - ESE 24 28 13 15 1016.8 1016.8 -
26/09:30pm 24.4 - - - - ESE 26 30 14 16 1016.6 - -
26/09:00pm 24.4 - - - - ESE 28 30 15 16 1016.6 1016.6 -
26/08:30pm 24.5 - - - - SE 26 30 14 16 1016.4 - -
26/08:00pm 24.5 - - - - SE 26 28 14 15 1016.2 1016.3 -
26/07:30pm 24.2 - - - - SE 26 28 14 15 1016.1 - -
26/07:00pm 24.6 - - - - SE 26 26 14 14 1015.9 1016.0 -
26/06:30pm 24.1 - - - - SE 24 28 13 15 1015.7 - -
26/06:00pm 24.4 - - - - SSE 24 28 13 15 1015.2 1015.3 -
26/05:30pm 24.3 - - - - SE 24 28 13 15 1015.1 - -
26/05:00pm 24.3 - - - - SE 24 28 13 15 1015.1 1015.1 -
26/04:30pm 24.5 - - - - SSE 24 28 13 15 1014.9 - -
26/04:00pm 24.2 - - - - SE 24 28 13 15 1014.7 1014.7 -
26/03:30pm 24.3 - - - - SE 24 28 13 15 1014.5 - -
26/03:00pm 24.5 - - - - ESE 26 28 14 15 1014.6 1014.5 -
26/02:30pm 24.1 - - - - SE 24 28 13 15 1014.5 - -
26/02:00pm 24.1 - - - - SE 24 28 13 15 1014.7 1014.6 -
26/01:30pm 24.1 - - - - SE 22 26 12 14 1014.9 - -
26/01:00pm 24.1 - - - - SE 22 26 12 14 1015.1 1015.0 -
26/12:30pm 24.3 - - - - SE 24 26 13 14 1015.6 - -
26/12:00pm 24.3 - - - - SE 22 24 12 13 1016.1 1016.0 -
26/11:30am 24.2 - - - - SE 20 24 11 13 1016.6 - -
26/11:00am 24.2 - - - - ESE 20 24 11 13 1016.9 1016.9 -
26/10:30am 24.1 - - - - ESE 20 24 11 13 1017.2 - -
26/10:00am 24.2 - - - - ESE 20 24 11 13 1017.3 1017.2 -
26/09:30am 24.2 - - - - ESE 20 24 11 13 1017.3 - -
26/09:00am 24.2 - - - - SE 20 24 11 13 1017.3 1017.3 -
26/08:30am 24.2 - - - - SE 22 26 12 14 1017.2 - -
26/08:00am 23.9 - - - - ESE 24 26 13 14 1017.0 1017.0 -
26/07:30am 23.7 - - - - ESE 22 26 12 14 1016.9 - -
26/07:00am 24.0 - - - - ESE 22 24 12 13 1017.0 1017.0 -
26/06:30am 23.6 - - - - ESE 20 24 11 13 1016.9 - -
26/06:00am 24.0 - - - - SE 20 26 11 14 1016.5 1016.7 -
26/05:30am 23.8 - - - - SE 22 26 12 14 1016.2 - -
26/05:00am 23.8 - - - - SE 22 26 12 14 1016.1 1016.2 -
26/04:30am 23.6 - - - - SE 20 26 11 14 1016.0 - -
26/04:00am 23.8 - - - - SE 22 26 12 14 1015.9 1015.9 -
26/03:30am 23.6 - - - - SSE 22 26 12 14 1015.9 - -
26/03:00am 23.6 - - - - SE 22 26 12 14 1016.0 1016.0 -
26/02:30am 23.8 - - - - SE 20 22 11 12 1016.1 - -
26/02:00am 23.8 - - - - SSE 20 24 11 13 1016.2 1016.2 -
26/01:30am 23.9 - - - - SE 20 24 11 13 1016.3 - -
26/01:00am 23.8 - - - - SSE 20 24 11 13 1016.5 1016.5 -
26/12:30am 23.9 - - - - SSE 20 24 11 13 1016.6 - -
26/12:00am 23.8 - - - - SSE 19 20 10 11 1016.9 1016.9 -
 
Date/Time
EST
Temp
°C
App
Temp
°C
Dew
Point
°C
Rel
Hum
%
Delta-T
°C
Wind Press
QNH
hPa
Press
MSL
hPa
Rain since
9am
mm
Dir  Spd
km/h
Gust
km/h
Spd
kts
Gust
kts
25/11:30pm 23.9 - - - - S 17 20 9 11 1016.8 - -
25/11:00pm 23.8 - - - - S 17 20 9 11 1016.8 1016.8 -
25/10:30pm 23.7 - - - - SSE 17 20 9 11 1016.8 - -
25/10:00pm 23.7 - - - - SSE 17 20 9 11 1016.9 1017.0 -
25/09:30pm 23.9 - - - - SE 17 20 9 11 1017.0 - -
25/09:00pm 24.0 - - - - SE 17 20 9 11 1016.7 1016.7 -
25/08:30pm 24.0 - - - - ESE 19 22 10 12 1016.6 - -
25/08:00pm 23.9 - - - - ESE 17 20 9 11 1016.4 1016.4 -
25/07:30pm 23.9 - - - - ESE 19 22 10 12 1016.3 - -
25/07:00pm 23.8 - - - - SE 19 24 10 13 1016.0 1016.1 -
25/06:30pm 23.9 - - - - E 20 24 11 13 1015.8 - -
25/06:00pm 24.0 - - - - SE 17 22 9 12 1015.4 1015.4 -
25/05:30pm 24.0 - - - - SSE 17 20 9 11 1015.3 - -
25/05:00pm 24.0 - - - - ESE 17 20 9 11 1015.1 1015.1 -
25/04:30pm 24.3 - - - - ESE 17 20 9 11 1015.0 - -
25/04:00pm 23.9 - - - - SE 15 17 8 9 1015.0 1015.0 -
25/03:30pm 24.1 - - - - SE 13 17 7 9 1014.9 - -
25/03:00pm 24.1 - - - - SSE 15 19 8 10 1014.9 1014.9 -
25/02:30pm 24.0 - - - - SSE 13 17 7 9 1015.0 - -
25/02:00pm 24.1 - - - - SSE 13 15 7 8 1015.1 1015.1 -
25/01:30pm 23.9 - - - - S 13 17 7 9 1015.2 - -
25/01:00pm 23.9 - - - - S 13 17 7 9 1015.3 1015.3 -
25/12:30pm 23.9 - - - - SSE 11 13 6 7 1015.6 - -
25/12:00pm 23.8 - - - - SSE 11 11 6 6 1016.1 1015.9 -
25/11:30am 24.0 - - - - ESE 9 13 5 7 1016.6 - -
25/11:00am 24.0 - - - - E 11 13 6 7 1016.9 1016.9 -
25/10:30am 24.1 - - - - E 11 15 6 8 1017.1 - -
25/10:00am 24.2 - - - - E 13 - 7 - - 1017.4 -
25/09:30am 24.1 - - - - ENE 15 19 8 10 1017.4 - -
25/09:00am 24.0 - - - - ENE 19 20 10 11 1017.4 1017.4 -
25/08:30am 24.4 - - - - ENE 15 19 8 10 1017.6 - -
25/08:00am 24.2 - - - - ENE 15 19 8 10 1017.3 1017.4 -
25/07:30am 24.0 - - - - ENE 15 17 8 9 1016.8 - -
25/07:00am 23.9 - - - - ENE 17 20 9 11 1016.6 1016.6 -
25/06:30am 23.3 - - - - E 13 15 7 8 1016.4 - -
25/06:00am 23.4 - - - - E 15 17 8 9 1016.1 1016.2 -
25/05:30am 23.5 - - - - S 13 17 7 9 1015.8 - -
25/05:00am 23.7 - - - - S 4 11 2 6 1015.6 1015.7 -
25/04:30am 23.5 - - - - SSE 6 15 3 8 1015.5 - -
25/04:00am 23.5 - - - - SSW 2 6 1 3 1015.5 1015.5 -
25/03:30am 23.4 - - - - CALM 0 4 0 2 1015.6 - -
25/03:00am 23.7 - - - - CALM 0 2 0 1 1015.5 1015.5 -
25/02:30am 23.4 - - - - CALM 0 2 0 1 1015.8 - -
25/02:00am 23.4 - - - - CALM 0 0 0 0 1016.2 1016.2 -
25/01:30am 23.4 - - - - CALM 0 2 0 1 1016.4 - -
25/01:00am 23.6 - - - - CALM 0 2 0 1 1016.7 1016.7 -
25/12:30am 23.5 - - - - CALM 0 2 0 1 1016.8 - -
25/12:00am 23.7 - - - - CALM 0 4 0 2 1016.8 1016.8 -
 
Date/Time
EST
Temp
°C
App
Temp
°C
Dew
Point
°C
Rel
Hum
%
Delta-T
°C
Wind Press
QNH
hPa
Press
MSL
hPa
Rain since
9am
mm
Dir  Spd
km/h
Gust
km/h
Spd
kts
Gust
kts
24/11:30pm 23.6 - - - - CALM 0 0 0 0 1016.8 - -

Other Formats:

Comma delimited format used in spreadsheet applications
http://www.bom.gov.au/fwo/IDQ60801/IDQ60801.94393.axf

JavaScript Object Notation format (JSON) in row-major order
http://www.bom.gov.au/fwo/IDQ60801/IDQ60801.94393.json